الصفحة الرئيسية
METAR-TAF:

METAR-TAF

مطار :

طرابزون, تركيا

دائرة عرض: 41-00N, خط طول: 039-43E, ارتفاع: 35 متر

مراقبة الطقس الحالي

تاريخ ووقت الإصدار 15 دقيقة قبل الساعة 09:50UTC
ريح 4 عقدة من الشرق/الشمال الشرقي, الاتجاه يتراوح بين الشمال و الشرق/الجنوب الشرقي
درجة الحرارة 13°درجة مئوية
الرطوبة 58%
ضغط 1018 hPa
الرؤية 10 كم أو أكثر
الغيوم لا تقل 1500 م ولا وجود لمزنة ركامية السحاب الأسود

METAR: LTCG 270950Z 06004KT 010V120 CAVOK 13/05 Q1018 NOSIG RMK RWY29 07003KT

زمن: 13:05 (10:05 UTC)

توقعات

تاريخ ووقت الإصدار 5ساعات و 25 دقيقة قبل الساعة 04:40UTC
التوقعات صالحة من27 الساعة 06 UTC إلى 28 الساعة 06 UTC
ريح 13 عقدة من الجنوب/الجنوب الغربي
الرؤية 10 كم أو أكثر
الغيوم لا تقل 1500 م ولا وجود لمزنة ركامية السحاب الأسود
أصبح
من 27 الساعة 06 UTC إلى 27 الساعة 10 UTC
ريح 2 عقدةمن اتجاهات متغيرة
أصبح
من 27 الساعة 15 UTC إلى 27 الساعة 19 UTC
ريح 12 عقدة من الجنوب/الجنوب الغربي
أصبح
من 28 الساعة 01 UTC إلى 28 الساعة 05 UTC
ريح 2 عقدةمن اتجاهات متغيرة

TAF: LTCG 270440Z 2706/2806 21013KT CAVOK BECMG 2706/2710 VRB02KT BECMG 2715/2719 21012KT BECMG 2801/2805 VRB02KT

أرصاد الطقس والتوقعات من أكثر من 4000 مطار (تقارير الطقس للمطار METAR والتنبؤ بالطقس بالمطارTAF).

المحطات المتاحة هي النقط الصفراء والحمراء على الخريطة.

حرك المؤشر فوق النقطة لمعرفة اسم المحطة.

ثم انقر لمعرفة أرصاد وتوقعات الطقس.

لتغيير الخارطة: اضغط على الأزرار الخضراء مع رمز الصليب الأسود للتكبير. على الزر الأخضر مع شرطة للتصغير، أو على الأسهم الخضراء للخرائط المجاورة.


METAR-TAF: